Larryville, Pennsylvania
Current Conditions -  °F | °C
As of 7:54 AM on Wednesday 22 Oct 2014 (Local Time) from KIPT Reporting Station
Overcast Overcast  
Wind Chill: 53°   Ceiling: 1900
Heat Index: 53°   Visibility: 10mi
Dew Point: 45°   Wind: 6mph
Humidity: 74%   Direction: 330°NNW
Pressure: 30.01"   Gusts: NA
Location:  41.1288°N, 77.1989°W
Report Text: KIPT 221154Z 33005KT 10SM OVC019 12/07 A3001 RMK AO2 SLP163 T01170072 10122 20111 52017
Loading
Personal Weather Stations






























Interactive Weather Map
Tropical Storm Tracking
New forecast layout! Learn more

10-Day Weather Forecast

Advertisements
Track Severe Weather on mobile